Time;durP1;ratioP1;P1;durP2;ratioP2;P2;SDS_P1;SDS_P2;PMS_P1;PMS_P2;Temp;Humidity;BMP_temperature;BMP_pressure;BME280_temperature;BME280_humidity;BME280_pressure;Samples;Min_cycle;Max_cycle;Signal;HPM_P1;HPM_P2
2023/12/06 00:01:03;;;;;;;12.35;6.38;;;5.80;99.90;;;;;;4907511;29;20048;-81
2023/12/06 00:03:29;;;;;;;12.40;7.28;;;5.90;99.90;;;;;;4906963;29;20122;-81
2023/12/06 00:05:54;;;;;;;15.45;7.68;;;6.00;99.90;;;;;;4905698;29;20036;-82
2023/12/06 00:08:20;;;;;;;15.52;8.05;;;6.10;99.90;;;;;;4911980;29;20020;-82
2023/12/06 00:10:47;;;;;;;15.68;7.18;;;6.10;99.90;;;;;;4902716;29;20028;-82
2023/12/06 00:13:13;;;;;;;16.05;6.18;;;6.10;99.90;;;;;;4901783;29;20024;-82
2023/12/06 00:15:39;;;;;;;15.65;6.25;;;6.00;99.90;;;;;;4898631;29;20109;-82
2023/12/06 00:18:04;;;;;;;16.42;6.55;;;5.90;99.90;;;;;;4901872;29;20433;-82
2023/12/06 00:20:30;;;;;;;12.85;6.20;;;5.90;99.90;;;;;;4906555;29;20036;-81
2023/12/06 00:22:56;;;;;;;14.82;7.10;;;6.00;99.90;;;;;;4906180;29;20032;-82
2023/12/06 00:25:22;;;;;;;18.70;6.50;;;6.00;99.90;;;;;;4904508;29;20032;-82
2023/12/06 00:27:47;;;;;;;16.40;7.35;;;6.00;99.90;;;;;;4904428;29;20025;-83
2023/12/06 00:30:13;;;;;;;14.63;6.15;;;5.80;99.90;;;;;;4907164;29;20366;-83
2023/12/06 00:32:39;;;;;;;19.15;7.43;;;5.70;99.90;;;;;;4910648;29;20136;-82
2023/12/06 00:35:06;;;;;;;20.08;7.60;;;5.80;99.90;;;;;;4904661;29;20114;-83
2023/12/06 00:37:31;;;;;;;14.40;6.80;;;5.70;99.90;;;;;;4900706;29;20267;-83
2023/12/06 00:39:57;;;;;;;11.20;6.72;;;5.80;99.90;;;;;;4903702;29;20480;-83
2023/12/06 00:42:23;;;;;;;12.63;6.20;;;5.90;99.90;;;;;;4903584;29;20044;-83
2023/12/06 00:44:49;;;;;;;12.40;6.50;;;5.90;99.90;;;;;;4905435;29;20047;-83
2023/12/06 00:47:14;;;;;;;13.52;7.00;;;6.00;99.90;;;;;;4902323;29;20115;-82
2023/12/06 00:49:40;;;;;;;13.68;7.00;;;5.90;99.90;;;;;;4901465;29;20581;-83
2023/12/06 00:52:05;;;;;;;12.43;6.65;;;5.90;99.90;;;;;;4912534;29;20039;-83
2023/12/06 00:54:31;;;;;;;15.75;6.30;;;6.00;99.90;;;;;;4908449;29;20036;-83
2023/12/06 00:56:57;;;;;;;16.27;7.47;;;6.00;99.90;;;;;;4905102;29;20106;-83
2023/12/06 00:59:22;;;;;;;14.30;6.30;;;5.90;99.90;;;;;;4908625;29;20028;-83
2023/12/06 01:01:48;;;;;;;17.30;6.82;;;6.00;99.90;;;;;;4911599;29;20048;-83
2023/12/06 01:04:14;;;;;;;13.25;5.97;;;5.90;99.90;;;;;;4908494;29;20035;-83
2023/12/06 01:06:39;;;;;;;12.02;6.13;;;5.90;99.90;;;;;;4910214;29;20028;-83
2023/12/06 01:09:06;;;;;;;13.95;6.68;;;5.90;99.90;;;;;;4902594;29;20361;-83
2023/12/06 01:11:32;;;;;;;14.18;5.85;;;5.80;99.90;;;;;;4905934;29;20032;-83
2023/12/06 01:13:57;;;;;;;15.88;6.93;;;5.70;99.90;;;;;;4909171;29;20028;-83
2023/12/06 01:16:23;;;;;;;15.23;7.15;;;5.60;99.90;;;;;;4909645;29;20032;-83
2023/12/06 01:18:49;;;;;;;16.08;6.50;;;5.80;99.90;;;;;;4903474;29;20051;-83
2023/12/06 01:21:15;;;;;;;12.05;5.95;;;5.80;99.90;;;;;;4896104;29;20024;-83
2023/12/06 01:23:41;;;;;;;14.43;6.68;;;5.90;99.90;;;;;;4901926;29;20039;-82
2023/12/06 01:26:06;;;;;;;15.32;6.07;;;5.90;99.90;;;;;;4905199;29;20028;-81
2023/12/06 01:28:32;;;;;;;12.20;6.75;;;6.00;99.90;;;;;;4902073;29;20437;-81
2023/12/06 01:30:57;;;;;;;16.25;6.70;;;5.90;99.90;;;;;;4904778;29;20036;-81
2023/12/06 01:33:23;;;;;;;13.00;6.15;;;5.90;99.90;;;;;;4906263;29;20035;-81
2023/12/06 01:35:48;;;;;;;13.00;6.45;;;5.90;99.90;;;;;;4914549;29;20087;-83
2023/12/06 01:38:14;;;;;;;16.55;7.18;;;5.80;99.90;;;;;;4923481;29;20044;-80
2023/12/06 01:40:40;;;;;;;15.98;6.50;;;5.80;99.90;;;;;;4924318;29;20032;-80
2023/12/06 01:43:07;;;;;;;20.25;7.03;;;5.80;99.90;;;;;;4921911;29;20076;-81
2023/12/06 01:45:32;;;;;;;17.83;6.63;;;5.80;99.90;;;;;;4915793;29;20032;-82
2023/12/06 01:47:59;;;;;;;12.25;6.80;;;5.70;99.90;;;;;;4906148;29;20499;-81
2023/12/06 01:50:26;;;;;;;11.98;6.15;;;5.70;99.90;;;;;;4906781;29;20124;-82
2023/12/06 01:52:56;;;;;;;13.27;6.53;;;5.70;99.90;;;;;;4910108;29;20032;-82
2023/12/06 01:55:22;;;;;;;14.00;6.82;;;5.80;99.90;;;;;;4901215;29;21451;-81
2023/12/06 01:57:47;;;;;;;19.15;7.00;;;5.80;99.90;;;;;;4901766;29;20232;-82
2023/12/06 02:00:15;;;;;;;13.23;6.45;;;5.90;99.90;;;;;;4908503;29;20505;-82
2023/12/06 02:02:41;;;;;;;14.55;6.78;;;5.90;99.90;;;;;;4908876;29;20854;-82
2023/12/06 02:05:08;;;;;;;14.30;6.40;;;5.90;99.90;;;;;;4912051;29;20480;-81
2023/12/06 02:07:35;;;;;;;15.00;7.25;;;6.00;99.90;;;;;;4905168;29;20024;-81
2023/12/06 02:10:01;;;;;;;16.00;7.47;;;6.00;99.90;;;;;;4904559;29;20044;-81
2023/12/06 02:12:27;;;;;;;15.73;7.35;;;5.90;99.90;;;;;;4909705;29;20035;-81
2023/12/06 02:14:53;;;;;;;15.35;7.60;;;6.00;99.90;;;;;;4912884;29;20491;-81
2023/12/06 02:17:19;;;;;;;13.00;7.18;;;5.90;99.90;;;;;;4911483;29;20044;-81
2023/12/06 02:19:45;;;;;;;17.92;8.32;;;5.80;99.90;;;;;;4904704;29;20517;-81
2023/12/06 02:22:12;;;;;;;25.77;7.78;;;5.90;99.90;;;;;;4907365;29;20044;-81
2023/12/06 02:24:40;;;;;;;18.08;7.22;;;6.00;99.90;;;;;;4894833;29;20403;-81
2023/12/06 02:27:06;;;;;;;18.70;7.50;;;5.90;99.90;;;;;;4894181;29;20326;-80
2023/12/06 02:29:31;;;;;;;17.20;6.68;;;5.70;99.90;;;;;;4901536;29;20028;-83
2023/12/06 02:31:57;;;;;;;19.25;6.88;;;5.60;99.90;;;;;;4906771;29;21226;-83
2023/12/06 02:34:26;;;;;;;12.50;6.82;;;5.40;99.90;;;;;;4911742;29;20132;-82
2023/12/06 02:36:55;;;;;;;14.13;7.00;;;5.60;99.90;;;;;;4909858;29;20028;-83
2023/12/06 02:39:21;;;;;;;12.40;6.65;;;5.70;99.90;;;;;;4898675;29;20028;-83
2023/12/06 02:41:47;;;;;;;15.48;6.68;;;5.80;99.90;;;;;;4904902;29;20036;-83
2023/12/06 02:44:12;;;;;;;16.08;6.90;;;5.90;99.90;;;;;;4907913;29;20051;-82
2023/12/06 02:46:38;;;;;;;13.70;6.43;;;6.00;99.90;;;;;;4911771;29;20083;-82
2023/12/06 02:49:04;;;;;;;13.75;6.50;;;6.00;99.90;;;;;;4901638;29;20032;-83
2023/12/06 02:51:30;;;;;;;12.30;6.30;;;6.00;99.90;;;;;;4904051;29;20058;-83
2023/12/06 02:53:55;;;;;;;15.05;6.70;;;6.10;99.90;;;;;;4905877;29;20136;-83
2023/12/06 02:56:21;;;;;;;14.52;6.88;;;6.00;99.90;;;;;;4902742;29;20030;-83
2023/12/06 02:58:46;;;;;;;12.85;6.80;;;6.10;99.90;;;;;;4898051;29;20085;-83
2023/12/06 03:01:12;;;;;;;13.00;6.28;;;6.10;99.90;;;;;;4901974;29;20057;-81
2023/12/06 03:03:38;;;;;;;8.98;4.25;;;6.10;99.90;;;;;;4900441;29;20024;-82
2023/12/06 03:06:04;;;;;;;6.63;3.33;;;6.00;99.90;;;;;;4907057;29;20425;-83
2023/12/06 03:08:29;;;;;;;8.30;3.58;;;5.90;99.90;;;;;;4899863;29;20071;-83
2023/12/06 03:10:55;;;;;;;9.73;4.32;;;6.00;99.90;;;;;;4897684;29;20465;-83
2023/12/06 03:13:21;;;;;;;7.03;3.58;;;6.00;99.90;;;;;;4902789;29;20275;-83
2023/12/06 03:15:46;;;;;;;9.65;3.67;;;5.90;99.90;;;;;;4901101;29;20051;-83
2023/12/06 03:18:12;;;;;;;10.30;3.67;;;5.90;99.90;;;;;;4905277;29;20028;-83
2023/12/06 03:20:37;;;;;;;7.18;3.90;;;5.90;99.90;;;;;;4903675;29;20520;-83
2023/12/06 03:23:03;;;;;;;8.35;3.90;;;5.90;99.90;;;;;;4901030;29;20179;-82
2023/12/06 03:25:29;;;;;;;7.22;4.05;;;5.90;99.90;;;;;;4902886;29;20031;-82
2023/12/06 03:27:55;;;;;;;8.07;4.10;;;6.00;99.90;;;;;;4903513;29;20481;-83
2023/12/06 03:30:20;;;;;;;7.95;3.80;;;6.10;99.90;;;;;;4898838;29;20033;-82
2023/12/06 03:32:46;;;;;;;8.57;3.70;;;6.10;99.90;;;;;;4905022;29;20144;-83
2023/12/06 03:35:12;;;;;;;8.90;3.78;;;6.00;99.90;;;;;;4914104;29;20032;-82
2023/12/06 03:37:37;;;;;;;7.45;3.05;;;5.80;99.90;;;;;;4909306;29;20174;-82
2023/12/06 03:40:03;;;;;;;5.13;3.20;;;5.90;99.90;;;;;;4907921;29;20587;-82
2023/12/06 03:42:29;;;;;;;4.43;2.90;;;5.90;99.90;;;;;;4910457;29;20036;-82
2023/12/06 03:44:55;;;;;;;6.78;2.72;;;5.80;99.90;;;;;;4921284;29;20044;-81
2023/12/06 03:47:20;;;;;;;10.65;2.83;;;5.70;99.90;;;;;;4920202;29;20018;-82
2023/12/06 03:49:46;;;;;;;7.35;3.00;;;5.60;99.90;;;;;;4925346;29;20020;-83
2023/12/06 03:52:11;;;;;;;7.32;3.10;;;5.70;99.90;;;;;;4925794;29;20040;-83
2023/12/06 03:54:37;;;;;;;7.32;3.22;;;5.70;99.90;;;;;;4911095;29;20056;-82
2023/12/06 03:57:03;;;;;;;7.03;2.88;;;5.80;99.90;;;;;;4909173;29;20164;-82
2023/12/06 03:59:28;;;;;;;7.90;3.17;;;5.80;99.90;;;;;;4907198;29;20579;-82
2023/12/06 04:01:54;;;;;;;7.97;2.75;;;5.90;99.90;;;;;;4906947;29;20039;-82
2023/12/06 04:04:20;;;;;;;6.63;3.00;;;5.90;99.90;;;;;;4909201;29;20024;-82
2023/12/06 04:06:45;;;;;;;4.47;2.85;;;5.90;99.90;;;;;;4904712;29;20095;-83
2023/12/06 04:09:11;;;;;;;7.20;3.58;;;6.00;99.90;;;;;;4907591;29;20377;-82
2023/12/06 04:11:37;;;;;;;8.65;3.25;;;6.00;99.90;;;;;;4911553;29;20028;-82
2023/12/06 04:14:03;;;;;;;6.88;2.80;;;5.90;99.90;;;;;;4912902;29;20054;-82
2023/12/06 04:16:30;;;;;;;7.80;2.97;;;6.00;99.90;;;;;;4906498;29;20020;-82
2023/12/06 04:18:55;;;;;;;7.53;2.92;;;6.00;99.90;;;;;;4906930;29;21553;-82
2023/12/06 04:21:21;;;;;;;7.57;3.50;;;6.00;99.90;;;;;;4904236;29;20029;-82
2023/12/06 04:23:48;;;;;;;3.78;2.50;;;6.00;99.90;;;;;;4906084;29;20544;-82
2023/12/06 04:26:14;;;;;;;9.77;2.85;;;6.00;99.90;;;;;;4911730;29;20080;-82
2023/12/06 04:28:40;;;;;;;5.53;3.08;;;5.80;99.90;;;;;;4910639;29;20039;-81
2023/12/06 04:31:05;;;;;;;8.85;3.03;;;5.80;99.90;;;;;;4909307;29;20032;-82
2023/12/06 04:33:31;;;;;;;8.77;3.22;;;5.80;99.90;;;;;;4907625;29;20123;-82
2023/12/06 04:35:57;;;;;;;5.05;2.92;;;5.80;99.90;;;;;;4902649;29;20040;-82
2023/12/06 04:38:23;;;;;;;5.13;3.20;;;5.70;99.90;;;;;;4894279;29;20040;-82
2023/12/06 04:40:48;;;;;;;7.60;3.13;;;5.80;99.90;;;;;;4911370;29;20024;-82
2023/12/06 04:43:16;;;;;;;10.07;3.63;;;5.80;99.90;;;;;;4913235;29;20054;-82
2023/12/06 04:45:43;;;;;;;6.82;3.55;;;5.80;99.90;;;;;;4910424;29;20028;-82
2023/12/06 04:48:08;;;;;;;9.07;3.38;;;5.60;99.90;;;;;;4910291;29;20488;-82
2023/12/06 04:50:34;;;;;;;5.22;3.38;;;5.60;99.90;;;;;;4901227;29;20032;-81
2023/12/06 04:53:00;;;;;;;6.93;3.17;;;5.60;99.90;;;;;;4907920;29;20032;-82
2023/12/06 04:55:26;;;;;;;6.25;3.70;;;5.60;99.90;;;;;;4904369;29;20024;-82
2023/12/06 04:57:51;;;;;;;11.18;3.90;;;5.60;99.90;;;;;;4905388;29;20074;-82
2023/12/06 05:00:17;;;;;;;8.45;3.72;;;5.60;99.90;;;;;;4904060;29;20519;-82
2023/12/06 05:02:43;;;;;;;7.78;4.55;;;5.70;99.90;;;;;;4906494;29;20298;-81
2023/12/06 05:05:09;;;;;;;7.25;3.67;;;5.70;99.90;;;;;;4906715;29;20223;-81
2023/12/06 05:07:35;;;;;;;5.63;3.63;;;5.60;99.90;;;;;;4908858;29;20051;-81
2023/12/06 05:10:01;;;;;;;7.35;4.25;;;5.70;99.90;;;;;;4912151;29;20032;-81
2023/12/06 05:12:27;;;;;;;9.60;3.85;;;5.60;99.90;;;;;;4911504;29;20433;-81
2023/12/06 05:14:52;;;;;;;9.00;3.60;;;5.40;99.90;;;;;;4909777;29;20115;-81
2023/12/06 05:17:18;;;;;;;5.40;3.78;;;5.20;99.90;;;;;;4907340;29;20457;-82
2023/12/06 05:19:44;;;;;;;5.65;3.30;;;5.00;99.90;;;;;;4900887;29;20052;-81
2023/12/06 05:22:09;;;;;;;11.85;4.07;;;5.00;99.90;;;;;;4902347;29;20034;-81
2023/12/06 05:24:35;;;;;;;7.28;3.90;;;4.80;99.90;;;;;;4910420;29;20100;-81
2023/12/06 05:27:01;;;;;;;6.78;4.05;;;4.70;99.90;;;;;;4906807;29;20040;-81
2023/12/06 05:29:26;;;;;;;8.50;4.20;;;4.50;99.90;;;;;;4907045;29;20078;-81
2023/12/06 05:31:52;;;;;;;8.20;4.30;;;4.30;99.90;;;;;;4902748;29;20437;-83
2023/12/06 05:34:19;;;;;;;8.77;4.43;;;4.20;99.90;;;;;;4907903;29;20040;-80
2023/12/06 05:36:44;;;;;;;11.68;4.55;;;4.10;99.90;;;;;;4909978;29;20417;-82
2023/12/06 05:39:10;;;;;;;7.60;4.18;;;4.00;99.90;;;;;;4906668;29;20126;-82
2023/12/06 05:41:36;;;;;;;11.75;4.78;;;3.90;99.90;;;;;;4903882;29;20032;-82
2023/12/06 05:44:07;;;;;;;10.07;4.30;;;3.90;99.90;;;;;;4913073;29;20054;-82
2023/12/06 05:46:32;;;;;;;9.43;4.32;;;3.90;99.90;;;;;;4907747;29;20392;-82
2023/12/06 05:48:58;;;;;;;8.20;4.30;;;3.80;99.90;;;;;;4906841;29;20027;-82
2023/12/06 05:51:24;;;;;;;11.77;4.72;;;3.90;99.90;;;;;;4913710;29;20020;-82
2023/12/06 05:53:50;;;;;;;12.13;5.50;;;3.90;99.90;;;;;;4930368;29;20032;-81
2023/12/06 05:56:16;;;;;;;11.45;4.90;;;3.90;99.90;;;;;;4922874;29;20040;-82
2023/12/06 05:58:42;;;;;;;9.13;4.85;;;3.90;99.90;;;;;;4923798;29;20052;-82
2023/12/06 06:01:08;;;;;;;9.20;4.90;;;3.90;99.90;;;;;;4919212;29;20360;-82
2023/12/06 06:03:34;;;;;;;10.85;4.93;;;3.90;99.90;;;;;;4909289;29;20040;-82
2023/12/06 06:06:06;;;;;;;11.48;5.65;;;3.90;99.90;;;;;;4906919;29;20028;-82
2023/12/06 06:08:33;;;;;;;11.57;5.40;;;3.80;99.90;;;;;;4906409;29;20122;-81
2023/12/06 06:11:01;;;;;;;8.02;4.65;;;3.80;99.90;;;;;;4909797;29;20516;-82
2023/12/06 06:13:29;;;;;;;11.88;4.80;;;4.00;99.90;;;;;;4909598;29;20027;-82
2023/12/06 06:15:55;;;;;;;9.20;4.28;;;4.10;99.90;;;;;;4907089;29;20044;-82
2023/12/06 06:18:21;;;;;;;10.48;4.97;;;4.00;99.90;;;;;;4901206;29;20097;-82
2023/12/06 06:20:47;;;;;;;8.55;4.90;;;4.10;99.90;;;;;;4902915;29;20493;-82
2023/12/06 06:23:12;;;;;;;9.88;4.80;;;4.10;99.90;;;;;;4904711;29;20087;-82
2023/12/06 06:25:38;;;;;;;9.85;5.22;;;4.20;99.90;;;;;;4900554;29;20028;-82
2023/12/06 06:28:04;;;;;;;12.52;4.72;;;4.30;99.90;;;;;;4900444;29;20606;-82
2023/12/06 06:30:30;;;;;;;10.90;5.32;;;4.20;99.90;;;;;;4909787;29;20075;-83
2023/12/06 06:32:56;;;;;;;11.82;5.43;;;4.20;99.90;;;;;;4905526;29;20059;-82
2023/12/06 06:35:22;;;;;;;10.90;4.40;;;4.30;99.90;;;;;;4901502;29;20028;-81
2023/12/06 06:37:48;;;;;;;12.07;5.45;;;4.30;99.90;;;;;;4905567;29;20505;-82
2023/12/06 06:40:14;;;;;;;11.32;5.32;;;4.30;99.90;;;;;;4904754;29;20032;-82
2023/12/06 06:42:40;;;;;;;9.13;4.65;;;4.40;99.90;;;;;;4904701;29;20039;-82
2023/12/06 06:45:08;;;;;;;9.70;4.55;;;4.40;99.90;;;;;;4902547;29;20502;-82
2023/12/06 06:47:34;;;;;;;11.32;5.07;;;4.50;99.90;;;;;;4902160;29;20095;-82
2023/12/06 06:50:00;;;;;;;12.02;5.15;;;4.50;99.90;;;;;;4892706;29;20473;-82
2023/12/06 06:52:26;;;;;;;12.25;5.95;;;4.40;99.90;;;;;;4897986;29;20040;-88
2023/12/06 06:54:52;;;;;;;10.10;5.05;;;4.40;99.90;;;;;;4900447;29;20028;-83
2023/12/06 06:57:17;;;;;;;12.07;4.25;;;4.40;99.90;;;;;;4911233;29;20052;-83
2023/12/06 06:59:43;;;;;;;11.50;5.18;;;4.30;99.90;;;;;;4908172;29;20088;-83
2023/12/06 07:02:10;;;;;;;10.63;5.20;;;4.20;99.90;;;;;;4909397;29;20040;-83
2023/12/06 07:04:36;;;;;;;10.55;4.45;;;4.20;99.90;;;;;;4906154;29;20042;-83
2023/12/06 07:07:02;;;;;;;11.90;4.97;;;4.10;99.90;;;;;;4906733;29;20095;-83
2023/12/06 07:09:27;;;;;;;16.08;6.35;;;4.20;99.90;;;;;;4907597;29;20395;-84
2023/12/06 07:11:53;;;;;;;16.10;6.13;;;4.10;99.90;;;;;;4910841;29;20082;-83
2023/12/06 07:14:20;;;;;;;17.25;6.80;;;4.20;99.90;;;;;;4905579;29;20047;-83
2023/12/06 07:16:46;;;;;;;14.50;6.35;;;4.10;99.90;;;;;;4901657;29;20444;-83
2023/12/06 07:19:12;;;;;;;14.50;6.07;;;4.30;99.90;;;;;;4907490;29;20032;-81
2023/12/06 07:21:39;;;;;;;15.07;6.50;;;4.20;99.90;;;;;;4911534;29;20048;-83
2023/12/06 07:24:05;;;;;;;14.00;6.72;;;4.20;99.90;;;;;;4909788;29;20019;-82
2023/12/06 07:26:39;;;;;;;16.67;7.32;;;4.20;99.90;;;;;;4907068;29;20100;-83
2023/12/06 07:29:05;;;;;;;18.10;8.70;;;4.30;99.90;;;;;;4905385;29;20218;-81
2023/12/06 07:31:31;;;;;;;17.60;8.45;;;4.40;99.90;;;;;;4907127;29;20314;-81
2023/12/06 07:33:57;;;;;;;17.60;9.18;;;4.50;99.90;;;;;;4906027;29;20287;-80
2023/12/06 07:36:23;;;;;;;20.85;9.98;;;4.40;99.90;;;;;;4910742;29;20512;-79
2023/12/06 07:38:49;;;;;;;22.35;11.25;;;4.40;99.90;;;;;;4911685;29;20246;-80
2023/12/06 07:41:15;;;;;;;27.17;13.43;;;4.30;99.90;;;;;;4899811;29;20024;-81
2023/12/06 07:43:40;;;;;;;26.67;13.05;;;4.30;99.90;;;;;;4903120;29;20143;-84
2023/12/06 07:46:06;;;;;;;22.85;11.82;;;4.10;99.90;;;;;;4909888;29;20035;-84
2023/12/06 07:48:34;;;;;;;26.50;12.32;;;4.10;99.90;;;;;;4902705;29;20024;-81
2023/12/06 07:51:00;;;;;;;27.08;13.38;;;4.00;99.90;;;;;;4899489;29;20048;-80
2023/12/06 07:53:26;;;;;;;22.65;13.25;;;4.00;99.90;;;;;;4896535;29;20102;-83
2023/12/06 07:55:55;;;;;;;24.58;12.95;;;3.90;99.90;;;;;;4894587;29;20028;-83
2023/12/06 07:58:21;;;;;;;30.00;14.48;;;3.80;99.90;;;;;;4905218;29;20428;-82
2023/12/06 08:00:47;;;;;;;32.83;14.48;;;3.80;99.90;;;;;;4909072;29;20107;-78
2023/12/06 08:03:12;;;;;;;29.98;14.93;;;3.70;99.90;;;;;;4897462;29;20115;-78
2023/12/06 08:05:38;;;;;;;26.55;12.70;;;3.60;99.90;;;;;;4899843;29;20070;-78
2023/12/06 08:08:05;;;;;;;25.80;11.75;;;3.60;99.90;;;;;;4902960;29;20205;-82
2023/12/06 08:10:33;;;;;;;25.13;12.55;;;3.50;99.90;;;;;;4895563;29;20470;-80
2023/12/06 08:12:59;;;;;;;24.65;12.70;;;3.40;99.90;;;;;;4890013;29;20195;-81
2023/12/06 08:15:25;;;;;;;25.00;13.65;;;3.20;99.90;;;;;;4892283;29;20107;-84
2023/12/06 08:17:51;;;;;;;19.75;10.65;;;3.30;99.90;;;;;;4890904;29;20040;-82
2023/12/06 08:20:17;;;;;;;25.95;11.70;;;3.20;99.90;;;;;;4888594;29;20088;-83
2023/12/06 08:22:43;;;;;;;28.80;12.63;;;3.10;99.90;;;;;;4893634;29;20028;-81
2023/12/06 08:25:10;;;;;;;25.42;13.38;;;3.00;99.90;;;;;;4896855;29;20016;-82
2023/12/06 08:27:35;;;;;;;25.15;13.00;;;3.00;99.90;;;;;;4892156;29;20043;-81
2023/12/06 08:30:02;;;;;;;27.30;12.63;;;3.10;99.90;;;;;;4885984;29;20441;-81
2023/12/06 08:32:28;;;;;;;25.75;12.77;;;3.20;99.90;;;;;;4889710;29;20040;-80
2023/12/06 08:34:54;;;;;;;23.65;12.13;;;3.30;99.90;;;;;;4894441;29;20563;-80
2023/12/06 08:37:20;;;;;;;25.35;12.80;;;3.30;99.90;;;;;;4891704;29;20361;-83
2023/12/06 08:39:47;;;;;;;26.02;13.75;;;3.30;99.90;;;;;;4891634;29;20022;-84
2023/12/06 08:42:14;;;;;;;26.55;13.80;;;3.30;99.90;;;;;;4891508;29;20095;-80
2023/12/06 08:44:41;;;;;;;21.00;11.77;;;3.30;99.90;;;;;;4886646;29;20030;-84
2023/12/06 08:47:07;;;;;;;28.73;9.90;;;3.40;99.90;;;;;;4887880;29;20024;-84
2023/12/06 08:49:34;;;;;;;23.05;9.60;;;3.50;99.90;;;;;;4885944;29;20084;-80
2023/12/06 08:52:00;;;;;;;21.13;9.48;;;3.50;99.90;;;;;;4886942;29;20122;-85
2023/12/06 08:54:26;;;;;;;17.50;8.50;;;3.60;99.90;;;;;;4891191;29;20377;-87
2023/12/06 08:56:51;;;;;;;22.15;8.73;;;3.70;99.90;;;;;;4891044;29;20589;-82
2023/12/06 08:59:29;;;;;;;16.98;7.90;;;3.90;99.90;;;;;;4882508;29;20044;-81
2023/12/06 09:01:55;;;;;;;16.50;8.07;;;4.10;99.90;;;;;;4881518;29;20052;-81
2023/12/06 09:04:21;;;;;;;18.70;8.00;;;4.20;99.90;;;;;;4884566;29;20024;-80
2023/12/06 09:06:47;;;;;;;16.55;8.10;;;4.30;99.90;;;;;;4888047;29;20024;-81
2023/12/06 09:09:15;;;;;;;16.20;8.00;;;4.40;99.90;;;;;;4885208;29;20433;-84
2023/12/06 09:11:43;;;;;;;14.80;7.95;;;4.60;99.90;;;;;;4884523;29;20115;-85
2023/12/06 09:14:09;;;;;;;14.73;7.70;;;5.20;99.90;;;;;;4892095;29;20028;-86
2023/12/06 09:16:34;;;;;;;16.30;7.38;;;6.60;99.90;;;;;;4890139;29;20032;-82
2023/12/06 09:19:00;;;;;;;14.50;6.70;;;7.90;99.90;;;;;;4890959;29;21263;-88
2023/12/06 09:21:27;;;;;;;13.27;6.40;;;9.20;99.90;;;;;;4882852;29;20504;-84
2023/12/06 09:23:52;;;;;;;13.93;5.93;;;10.40;99.90;;;;;;4895928;29;20075;-83
2023/12/06 09:26:19;;;;;;;13.93;6.32;;;11.20;99.90;;;;;;4891382;29;20137;-80
2023/12/06 09:28:48;;;;;;;12.88;5.93;;;12.10;99.90;;;;;;4890896;29;20118;-91
2023/12/06 09:31:13;;;;;;;16.70;7.10;;;12.60;99.90;;;;;;4891145;29;20054;-80
2023/12/06 09:33:39;;;;;;;11.88;5.22;;;13.30;99.90;;;;;;4896675;29;20076;-85
2023/12/06 09:36:05;;;;;;;13.60;5.80;;;13.60;99.90;;;;;;4896792;29;20170;-88
2023/12/06 09:38:30;;;;;;;10.90;5.05;;;14.20;99.90;;;;;;4893399;29;20807;-87
2023/12/06 09:40:57;;;;;;;12.07;6.15;;;14.90;99.90;;;;;;4889174;29;20035;-89
2023/12/06 09:43:23;;;;;;;10.70;4.85;;;15.60;99.90;;;;;;4897128;29;20074;-82
2023/12/06 09:45:48;;;;;;;11.27;5.63;;;16.00;98.40;;;;;;4891377;29;20096;-82
2023/12/06 09:48:14;;;;;;;11.55;5.60;;;16.20;96.60;;;;;;4891955;29;20080;-83
2023/12/06 09:50:40;;;;;;;10.95;5.15;;;16.50;95.00;;;;;;4891717;29;20470;-87
2023/12/06 09:53:06;;;;;;;9.77;5.70;;;16.80;93.60;;;;;;4887570;29;20512;-81
2023/12/06 09:55:36;;;;;;;11.15;5.75;;;16.90;90.90;;;;;;4894497;29;20032;-87
2023/12/06 09:58:02;;;;;;;10.05;5.57;;;16.90;85.30;;;;;;4901605;29;20063;-86
2023/12/06 10:00:28;;;;;;;11.68;5.60;;;17.00;85.50;;;;;;4914165;29;20032;-84
2023/12/06 10:02:55;;;;;;;9.93;5.40;;;16.60;85.30;;;;;;4922069;29;20040;-86
2023/12/06 10:05:21;;;;;;;11.30;5.25;;;15.70;84.20;;;;;;4920103;29;20107;-83
2023/12/06 10:07:48;;;;;;;11.93;5.70;;;15.30;86.90;;;;;;4918329;29;20529;-86
2023/12/06 10:10:15;;;;;;;9.25;4.97;;;14.90;85.30;;;;;;4900905;29;20036;-86
2023/12/06 10:12:56;;;;;;;13.43;6.03;;;15.00;86.20;;;;;;4893356;29;20024;-81
2023/12/06 10:15:22;;;;;;;9.82;4.90;;;15.40;83.70;;;;;;4891845;29;20051;-82
2023/12/06 10:17:49;;;;;;;10.35;5.55;;;14.50;81.80;;;;;;4894241;29;20235;-82
2023/12/06 10:20:15;;;;;;;11.38;5.70;;;14.10;85.60;;;;;;4884563;29;20375;-82
2023/12/06 10:22:41;;;;;;;13.93;6.13;;;14.00;87.40;;;;;;4888397;29;20360;-81
2023/12/06 10:25:08;;;;;;;12.85;6.03;;;14.20;86.70;;;;;;4886395;29;20032;-84
2023/12/06 10:27:35;;;;;;;12.93;6.80;;;14.80;83.70;;;;;;4889557;29;20967;-83
2023/12/06 10:30:03;;;;;;;12.35;6.53;;;15.80;82.70;;;;;;4889802;29;20593;-83
2023/12/06 10:32:30;;;;;;;12.55;6.10;;;16.10;76.20;;;;;;4893028;29;20623;-81
2023/12/06 10:34:59;;;;;;;15.80;6.47;;;16.70;70.00;;;;;;4886284;29;20036;-81
2023/12/06 10:37:26;;;;;;;12.73;6.90;;;17.90;69.10;;;;;;4890608;29;20162;-83
2023/12/06 10:39:58;;;;;;;14.98;6.10;;;19.20;57.60;;;;;;4891987;29;20229;-82
2023/12/06 10:42:31;;;;;;;10.93;6.30;;;20.20;51.10;;;;;;4898760;29;20600;-81
2023/12/06 10:44:59;;;;;;;11.07;6.47;;;20.70;47.10;;;;;;4896284;29;20578;-83
2023/12/06 10:47:26;;;;;;;12.65;6.28;;;21.30;45.20;;;;;;4896614;29;20033;-80
2023/12/06 10:49:54;;;;;;;14.05;7.22;;;21.30;44.20;;;;;;4892898;29;20091;-77
2023/12/06 10:52:20;;;;;;;12.25;6.55;;;21.00;44.10;;;;;;4900693;29;20122;-82
2023/12/06 10:54:47;;;;;;;12.48;7.05;;;20.60;44.20;;;;;;4900829;29;20028;-80
2023/12/06 10:57:13;;;;;;;12.82;6.43;;;20.60;44.60;;;;;;4902673;29;20225;-80
2023/12/06 10:59:41;;;;;;;12.32;7.18;;;20.90;45.10;;;;;;4899755;29;20564;-79
2023/12/06 11:02:10;;;;;;;12.20;6.72;;;21.10;43.90;;;;;;4893062;29;20455;-80
2023/12/06 11:04:50;;;;;;;13.45;6.32;;;21.50;43.20;;;;;;4896150;29;20322;-81
2023/12/06 11:07:40;;;;;;;14.63;6.10;;;20.80;42.40;;;;;;4900021;29;20055;-81
2023/12/06 11:10:29;;;;;;;12.73;6.10;;;18.90;45.50;;;;;;4894823;29;20107;-83
2023/12/06 11:13:35;;;;;;;11.45;6.13;;;18.60;48.00;;;;;;4896833;29;20040;-85
2023/12/06 11:16:27;;;;;;;12.40;6.07;;;18.80;46.90;;;;;;4898073;29;20043;-83
2023/12/06 11:18:53;;;;;;;11.07;6.10;;;19.30;45.80;;;;;;4897689;29;20383;-82
2023/12/06 11:21:19;;;;;;;9.55;5.70;;;19.10;46.80;;;;;;4893761;29;20507;-83
2023/12/06 11:23:46;;;;;;;12.02;5.68;;;18.70;47.00;;;;;;4896321;29;20034;-85
2023/12/06 11:26:12;;;;;;;13.32;6.30;;;18.10;48.50;;;;;;4894380;29;20050;-79
2023/12/06 11:28:39;;;;;;;12.45;5.55;;;18.20;50.00;;;;;;4896043;29;20068;-83
2023/12/06 11:31:05;;;;;;;9.73;5.72;;;18.70;48.90;;;;;;4895477;29;20090;-85
2023/12/06 11:33:31;;;;;;;8.82;5.35;;;19.10;47.10;;;;;;4896902;29;20122;-83
2023/12/06 11:35:57;;;;;;;11.10;5.35;;;19.10;48.10;;;;;;4893064;29;20523;-81
2023/12/06 11:38:39;;;;;;;11.50;5.00;;;19.30;47.80;;;;;;4894676;29;20020;-82
2023/12/06 11:41:05;;;;;;;9.27;5.13;;;20.00;47.30;;;;;;4881436;29;20240;-81
2023/12/06 11:43:38;;;;;;;8.68;5.47;;;20.70;44.10;;;;;;4889675;29;20036;-83
2023/12/06 11:46:04;;;;;;;10.38;5.80;;;20.50;42.10;;;;;;4899668;29;20479;-81
2023/12/06 11:48:32;;;;;;;11.55;6.00;;;20.00;44.00;;;;;;4895275;29;20564;-85
2023/12/06 11:51:01;;;;;;;14.38;5.97;;;19.70;43.60;;;;;;4891376;29;20039;-79
2023/12/06 11:53:27;;;;;;;11.68;6.10;;;19.60;45.20;;;;;;4888813;29;20036;-79
2023/12/06 11:55:54;;;;;;;11.75;5.88;;;19.40;46.20;;;;;;4896108;29;20410;-85
2023/12/06 11:58:20;;;;;;;10.88;6.03;;;19.30;47.30;;;;;;4896605;29;20250;-78
2023/12/06 12:00:49;;;;;;;12.10;6.22;;;19.10;46.20;;;;;;4892050;29;20220;-80
2023/12/06 12:03:16;;;;;;;13.73;6.70;;;18.80;47.50;;;;;;4904422;29;20028;-80
2023/12/06 12:05:43;;;;;;;13.80;6.63;;;18.30;46.90;;;;;;4916401;28;20024;-84
2023/12/06 12:08:10;;;;;;;15.13;7.18;;;17.20;49.50;;;;;;4910175;28;20567;-80
2023/12/06 12:10:36;;;;;;;14.65;7.18;;;16.00;52.10;;;;;;4917685;29;20067;-81
2023/12/06 12:13:02;;;;;;;15.13;6.18;;;15.20;57.80;;;;;;4915242;29;20059;-83
2023/12/06 12:15:29;;;;;;;13.85;5.75;;;16.10;58.00;;;;;;4894587;29;20058;-82
2023/12/06 12:17:58;;;;;;;10.55;4.90;;;17.40;52.50;;;;;;4892862;29;20144;-84
2023/12/06 12:20:24;;;;;;;11.13;5.40;;;18.30;50.10;;;;;;4890295;29;20147;-80
2023/12/06 12:22:52;;;;;;;12.93;4.93;;;18.20;47.80;;;;;;4898833;29;20020;-81
2023/12/06 12:25:19;;;;;;;10.45;4.30;;;18.20;49.80;;;;;;4894562;29;20296;-80
2023/12/06 12:27:46;;;;;;;9.43;4.45;;;18.70;47.90;;;;;;4893492;29;20388;-82
2023/12/06 12:30:12;;;;;;;11.13;4.70;;;18.90;48.40;;;;;;4888851;29;20927;-82
2023/12/06 12:32:48;;;;;;;4.18;2.35;;;19.00;46.10;;;;;;4883939;29;20063;-83
2023/12/06 12:35:14;;;;;;;5.07;2.10;;;19.30;45.50;;;;;;4893590;29;20496;-82
2023/12/06 12:37:42;;;;;;;9.27;2.58;;;18.50;45.70;;;;;;4896389;29;20400;-81
2023/12/06 12:40:09;;;;;;;6.10;1.92;;;17.80;47.90;;;;;;4893190;29;20032;-81
2023/12/06 12:42:39;;;;;;;5.05;1.85;;;17.90;47.20;;;;;;4892845;29;20259;-83